Aviation Digital Data Service (ADDS)

Output produced by METARs form (1556 UTC 12 December 2017)
found at http://www.aviationweather.gov/adds/metars/
 
METAR text: RJFU 121200Z 01003KT 330V070 9999 BKN030 BKN045 04/M04 Q1026
Conditions at: RJFU (NAGASAKI(CIV/JMS, JP) observed 1200 UTC 12 December 2017
Temperature: 4.0°C (39°F)
Dewpoint: -4.0°C (25°F) [RH = 56%]
Pressure (altimeter): 30.30 inches Hg (1026.0 mb)
Winds: from the N (10 degrees) at 3 MPH (3 knots; 1.6 m/s)
Visibility: 6 or more miles (10+ km)
Ceiling: 3000 feet AGL
Clouds: broken clouds at 3000 feet AGL
broken clouds at 4500 feet AGL
Weather: no significant weather observed at this time

METAR text: RJFU 121100Z 01004KT 340V040 9999 FEW020 BKN030 BKN045 04/M04 Q1025
Conditions at: RJFU (NAGASAKI(CIV/JMS, JP) observed 1100 UTC 12 December 2017
Temperature: 4.0°C (39°F)
Dewpoint: -4.0°C (25°F) [RH = 56%]
Pressure (altimeter): 30.27 inches Hg (1025.0 mb)
Winds: from the N (10 degrees) at 5 MPH (4 knots; 2.1 m/s)
Visibility: 6 or more miles (10+ km)
Ceiling: 3000 feet AGL
Clouds: few clouds at 2000 feet AGL
broken clouds at 3000 feet AGL
broken clouds at 4500 feet AGL
Weather: no significant weather observed at this time

METAR text: RJFU 121000Z 02008KT 9999 FEW015 BKN025 BKN050 04/M03 Q1025
Conditions at: RJFU (NAGASAKI(CIV/JMS, JP) observed 1000 UTC 12 December 2017
Temperature: 4.0°C (39°F)
Dewpoint: -3.0°C (27°F) [RH = 60%]
Pressure (altimeter): 30.27 inches Hg (1025.0 mb)
Winds: from the NNE (20 degrees) at 9 MPH (8 knots; 4.2 m/s)
Visibility: 6 or more miles (10+ km)
Ceiling: 2500 feet AGL
Clouds: few clouds at 1500 feet AGL
broken clouds at 2500 feet AGL
broken clouds at 5000 feet AGL
Weather: no significant weather observed at this time

METAR text: RJFU 120900Z 02010KT 9999 FEW015 BKN025 BKN040 03/M02 Q1024
Conditions at: RJFU (NAGASAKI(CIV/JMS, JP) observed 0900 UTC 12 December 2017
Temperature: 3.0°C (37°F)
Dewpoint: -2.0°C (28°F) [RH = 70%]
Pressure (altimeter): 30.24 inches Hg (1024.0 mb)
Winds: from the NNE (20 degrees) at 12 MPH (10 knots; 5.2 m/s)
Visibility: 6 or more miles (10+ km)
Ceiling: 2500 feet AGL
Clouds: few clouds at 1500 feet AGL
broken clouds at 2500 feet AGL
broken clouds at 4000 feet AGL
Weather: no significant weather observed at this time

METAR text: RJFU 120800Z 02011KT 9999 FEW015 BKN025 BKN040 04/M01 Q1024
Conditions at: RJFU (NAGASAKI(CIV/JMS, JP) observed 0800 UTC 12 December 2017
Temperature: 4.0°C (39°F)
Dewpoint: -1.0°C (30°F) [RH = 70%]
Pressure (altimeter): 30.24 inches Hg (1024.0 mb)
Winds: from the NNE (20 degrees) at 13 MPH (11 knots; 5.7 m/s)
Visibility: 6 or more miles (10+ km)
Ceiling: 2500 feet AGL
Clouds: few clouds at 1500 feet AGL
broken clouds at 2500 feet AGL
broken clouds at 4000 feet AGL
Weather: no significant weather observed at this time

METAR text: RJFU 120700Z 36010KT 9999 VCSH FEW020 SCT030 BKN050 04/M02 Q1024
Conditions at: RJFU (NAGASAKI(CIV/JMS, JP) observed 0700 UTC 12 December 2017
Temperature: 4.0°C (39°F)
Dewpoint: -2.0°C (28°F) [RH = 65%]
Pressure (altimeter): 30.24 inches Hg (1024.0 mb)
Winds: from the N (360 degrees) at 12 MPH (10 knots; 5.2 m/s)
Visibility: 6 or more miles (10+ km)
Ceiling: 5000 feet AGL
Clouds: few clouds at 2000 feet AGL
scattered clouds at 3000 feet AGL
broken clouds at 5000 feet AGL
Weather: VCSH  (showers in vicinity)

METAR text: RJFU 120600Z 01011KT 9999 VCSH FEW020 SCT030 BKN040 05/M01 Q1024
Conditions at: RJFU (NAGASAKI(CIV/JMS, JP) observed 0600 UTC 12 December 2017
Temperature: 5.0°C (41°F)
Dewpoint: -1.0°C (30°F) [RH = 65%]
Pressure (altimeter): 30.24 inches Hg (1024.0 mb)
Winds: from the N (10 degrees) at 13 MPH (11 knots; 5.7 m/s)
Visibility: 6 or more miles (10+ km)
Ceiling: 4000 feet AGL
Clouds: few clouds at 2000 feet AGL
scattered clouds at 3000 feet AGL
broken clouds at 4000 feet AGL
Weather: VCSH  (showers in vicinity)

METAR text: RJFU 120500Z 31012KT 280V350 9999 FEW020 SCT030 BKN040 06/M04 Q1024
Conditions at: RJFU (NAGASAKI(CIV/JMS, JP) observed 0500 UTC 12 December 2017
Temperature: 6.0°C (43°F)
Dewpoint: -4.0°C (25°F) [RH = 49%]
Pressure (altimeter): 30.24 inches Hg (1024.0 mb)
Winds: from the NW (310 degrees) at 14 MPH (12 knots; 6.2 m/s)
Visibility: 6 or more miles (10+ km)
Ceiling: 4000 feet AGL
Clouds: few clouds at 2000 feet AGL
scattered clouds at 3000 feet AGL
broken clouds at 4000 feet AGL
Weather: no significant weather observed at this time

METAR text: RJFU 120400Z 32016KT 9999 FEW025 SCT030 BKN045 05/M05 Q1024
Conditions at: RJFU (NAGASAKI(CIV/JMS, JP) observed 0400 UTC 12 December 2017
Temperature: 5.0°C (41°F)
Dewpoint: -5.0°C (23°F) [RH = 48%]
Pressure (altimeter): 30.24 inches Hg (1024.0 mb)
Winds: from the NW (320 degrees) at 18 MPH (16 knots; 8.3 m/s)
Visibility: 6 or more miles (10+ km)
Ceiling: 4500 feet AGL
Clouds: few clouds at 2500 feet AGL
scattered clouds at 3000 feet AGL
broken clouds at 4500 feet AGL
Weather: no significant weather observed at this time

METAR text: RJFU 120300Z 36017KT 9999 VCSH FEW025 BKN050 BKN/// 05/M01 Q1025
Conditions at: RJFU (NAGASAKI(CIV/JMS, JP) observed 0300 UTC 12 December 2017
Temperature: 5.0°C (41°F)
Dewpoint: -1.0°C (30°F) [RH = 65%]
Pressure (altimeter): 30.27 inches Hg (1025.0 mb)
Winds: from the N (360 degrees) at 20 MPH (17 knots; 8.8 m/s)
Visibility: 6 or more miles (10+ km)
Ceiling: 5000 feet AGL
Clouds: few clouds at 2500 feet AGL
broken clouds at 5000 feet AGL
Weather: VCSH  (showers in vicinity)

METAR text: RJFU 120200Z 33017KT 9999 VCSH FEW030 SCT035 BKN050 05/M03 Q1026
Conditions at: RJFU (NAGASAKI(CIV/JMS, JP) observed 0200 UTC 12 December 2017
Temperature: 5.0°C (41°F)
Dewpoint: -3.0°C (27°F) [RH = 56%]
Pressure (altimeter): 30.30 inches Hg (1026.0 mb)
Winds: from the NNW (330 degrees) at 20 MPH (17 knots; 8.8 m/s)
Visibility: 6 or more miles (10+ km)
Ceiling: 5000 feet AGL
Clouds: few clouds at 3000 feet AGL
scattered clouds at 3500 feet AGL
broken clouds at 5000 feet AGL
Weather: VCSH  (showers in vicinity)

METAR text: RJFU 120100Z 33018KT 9999 FEW030 SCT040 BKN050 05/M04 Q1026
Conditions at: RJFU (NAGASAKI(CIV/JMS, JP) observed 0100 UTC 12 December 2017
Temperature: 5.0°C (41°F)
Dewpoint: -4.0°C (25°F) [RH = 52%]
Pressure (altimeter): 30.30 inches Hg (1026.0 mb)
Winds: from the NNW (330 degrees) at 21 MPH (18 knots; 9.4 m/s)
Visibility: 6 or more miles (10+ km)
Ceiling: 5000 feet AGL
Clouds: few clouds at 3000 feet AGL
scattered clouds at 4000 feet AGL
broken clouds at 5000 feet AGL
Weather: no significant weather observed at this time

METAR text: RJFU 120000Z 34017KT 9999 FEW030 SCT040 BKN050 04/M04 Q1026
Conditions at: RJFU (NAGASAKI(CIV/JMS, JP) observed 0000 UTC 12 December 2017
Temperature: 4.0°C (39°F)
Dewpoint: -4.0°C (25°F) [RH = 56%]
Pressure (altimeter): 30.30 inches Hg (1026.0 mb)
Winds: from the NNW (340 degrees) at 20 MPH (17 knots; 8.8 m/s)
Visibility: 6 or more miles (10+ km)
Ceiling: 5000 feet AGL
Clouds: few clouds at 3000 feet AGL
scattered clouds at 4000 feet AGL
broken clouds at 5000 feet AGL
Weather: no significant weather observed at this time

METAR text: RJFU 112300Z 34016KT 9999 FEW030 SCT045 BKN050 04/M03 Q1026
Conditions at: RJFU (NAGASAKI(CIV/JMS, JP) observed 2300 UTC 11 December 2017
Temperature: 4.0°C (39°F)
Dewpoint: -3.0°C (27°F) [RH = 60%]
Pressure (altimeter): 30.30 inches Hg (1026.0 mb)
Winds: from the NNW (340 degrees) at 18 MPH (16 knots; 8.3 m/s)
Visibility: 6 or more miles (10+ km)
Ceiling: 5000 feet AGL
Clouds: few clouds at 3000 feet AGL
scattered clouds at 4500 feet AGL
broken clouds at 5000 feet AGL
Weather: no significant weather observed at this time

METAR text: RJFU 112200Z 33016KT 9999 FEW030 SCT035 BKN045 04/M05 Q1025
Conditions at: RJFU (NAGASAKI(CIV/JMS, JP) observed 2200 UTC 11 December 2017
Temperature: 4.0°C (39°F)
Dewpoint: -5.0°C (23°F) [RH = 52%]
Pressure (altimeter): 30.27 inches Hg (1025.0 mb)
Winds: from the NNW (330 degrees) at 18 MPH (16 knots; 8.3 m/s)
Visibility: 6 or more miles (10+ km)
Ceiling: 4500 feet AGL
Clouds: few clouds at 3000 feet AGL
scattered clouds at 3500 feet AGL
broken clouds at 4500 feet AGL
Weather: no significant weather observed at this time

METAR text: RJFU 112110Z 34015KT 9999 FEW030 SCT040 BKN050 04/M03 Q1024 RMK 1CU030 3CU040 6SC050 A3026
Conditions at: RJFU (NAGASAKI(CIV/JMS, JP) observed 2110 UTC 11 December 2017
Temperature: 4.0°C (39°F)
Dewpoint: -3.0°C (27°F) [RH = 60%]
Pressure (altimeter): 30.24 inches Hg (1024.0 mb)
Winds: from the NNW (340 degrees) at 17 MPH (15 knots; 7.8 m/s)
Visibility: 6 or more miles (10+ km)
Ceiling: 5000 feet AGL
Clouds: few clouds at 3000 feet AGL
scattered clouds at 4000 feet AGL
broken clouds at 5000 feet AGL
Weather: no significant weather observed at this time

METAR text: RJFU 111200Z 34015KT 9999 FEW020 SCT030 BKN060 06/00 Q1023
Conditions at: RJFU (NAGASAKI(CIV/JMS, JP) observed 1200 UTC 11 December 2017
Temperature: 6.0°C (43°F)
Dewpoint: 0.0°C (32°F) [RH = 65%]
Pressure (altimeter): 30.21 inches Hg (1023.0 mb)
Winds: from the NNW (340 degrees) at 17 MPH (15 knots; 7.8 m/s)
Visibility: 6 or more miles (10+ km)
Ceiling: 6000 feet AGL
Clouds: few clouds at 2000 feet AGL
scattered clouds at 3000 feet AGL
broken clouds at 6000 feet AGL
Weather: no significant weather observed at this time

METAR text: RJFU 111106Z 34019G29KT 9999 -SHRA FEW020 BKN035 BKN070 07/M00 Q1023 RMK 1CU020 6CU035 7AC070 A3021
Conditions at: RJFU (NAGASAKI(CIV/JMS, JP) observed 1106 UTC 11 December 2017
Temperature: 7.0°C (45°F)
Dewpoint: 0.0°C (32°F) [RH = 61%]
Pressure (altimeter): 30.21 inches Hg (1023.0 mb)
Winds: from the NNW (340 degrees) at 22 MPH (19 knots; 9.9 m/s)
gusting to 33 MPH (29 knots; 15.1 m/s)
Visibility: 6 or more miles (10+ km)
Ceiling: 3500 feet AGL
Clouds: few clouds at 2000 feet AGL
broken clouds at 3500 feet AGL
broken clouds at 7000 feet AGL
Weather: -SHRA  (light rain showers)

METAR text: RJFU 111100Z 33020KT 9999 FEW020 BKN035 BKN070 07/00 Q1022
Conditions at: RJFU (NAGASAKI(CIV/JMS, JP) observed 1100 UTC 11 December 2017
Temperature: 7.0°C (45°F)
Dewpoint: 0.0°C (32°F) [RH = 61%]
Pressure (altimeter): 30.18 inches Hg (1022.0 mb)
Winds: from the NNW (330 degrees) at 23 MPH (20 knots; 10.4 m/s)
Visibility: 6 or more miles (10+ km)
Ceiling: 3500 feet AGL
Clouds: few clouds at 2000 feet AGL
broken clouds at 3500 feet AGL
broken clouds at 7000 feet AGL
Weather: no significant weather observed at this time

METAR text: RJFU 111023Z 31021G31KT 9999 -SHRA FEW020 SCT040 BKN060 07/M01 Q1022 RMK 1CU020 4CU040 6SC060 A3019
Conditions at: RJFU (NAGASAKI(CIV/JMS, JP) observed 1023 UTC 11 December 2017
Temperature: 7.0°C (45°F)
Dewpoint: -1.0°C (30°F) [RH = 57%]
Pressure (altimeter): 30.18 inches Hg (1022.0 mb)
Winds: from the NW (310 degrees) at 24 MPH (21 knots; 10.9 m/s)
gusting to 36 MPH (31 knots; 16.1 m/s)
Visibility: 6 or more miles (10+ km)
Ceiling: 6000 feet AGL
Clouds: few clouds at 2000 feet AGL
scattered clouds at 4000 feet AGL
broken clouds at 6000 feet AGL
Weather: -SHRA  (light rain showers)

METAR text: RJFU 111000Z 32024KT 9999 FEW020 SCT040 BKN050 07/M01 Q1022
Conditions at: RJFU (NAGASAKI(CIV/JMS, JP) observed 1000 UTC 11 December 2017
Temperature: 7.0°C (45°F)
Dewpoint: -1.0°C (30°F) [RH = 57%]
Pressure (altimeter): 30.18 inches Hg (1022.0 mb)
Winds: from the NW (320 degrees) at 28 MPH (24 knots; 12.5 m/s)
Visibility: 6 or more miles (10+ km)
Ceiling: 5000 feet AGL
Clouds: few clouds at 2000 feet AGL
scattered clouds at 4000 feet AGL
broken clouds at 5000 feet AGL
Weather: no significant weather observed at this time

METAR text: RJFU 110912Z 33019G29KT 9999 FEW020 SCT030 BKN050 08/M02 Q1021 RMK 1CU020 3CU030 7SC050 A3017
Conditions at: RJFU (NAGASAKI(CIV/JMS, JP) observed 0912 UTC 11 December 2017
Temperature: 8.0°C (46°F)
Dewpoint: -2.0°C (28°F) [RH = 49%]
Pressure (altimeter): 30.15 inches Hg (1021.0 mb)
Winds: from the NNW (330 degrees) at 22 MPH (19 knots; 9.9 m/s)
gusting to 33 MPH (29 knots; 15.1 m/s)
Visibility: 6 or more miles (10+ km)
Ceiling: 5000 feet AGL
Clouds: few clouds at 2000 feet AGL
scattered clouds at 3000 feet AGL
broken clouds at 5000 feet AGL
Weather: no significant weather observed at this time

METAR text: RJFU 110900Z 35016KT 9999 FEW020 SCT030 BKN050 07/M02 Q1021
Conditions at: RJFU (NAGASAKI(CIV/JMS, JP) observed 0900 UTC 11 December 2017
Temperature: 7.0°C (45°F)
Dewpoint: -2.0°C (28°F) [RH = 53%]
Pressure (altimeter): 30.15 inches Hg (1021.0 mb)
Winds: from the N (350 degrees) at 18 MPH (16 knots; 8.3 m/s)
Visibility: 6 or more miles (10+ km)
Ceiling: 5000 feet AGL
Clouds: few clouds at 2000 feet AGL
scattered clouds at 3000 feet AGL
broken clouds at 5000 feet AGL
Weather: no significant weather observed at this time

METAR text: RJFU 110804Z 32016G26KT 9999 -SHRA FEW020 SCT030 BKN040 06/01 Q1021 RMK 1CU020 3CU030 5CU040 A3017
Conditions at: RJFU (NAGASAKI(CIV/JMS, JP) observed 0804 UTC 11 December 2017
Temperature: 6.0°C (43°F)
Dewpoint: 1.0°C (34°F) [RH = 70%]
Pressure (altimeter): 30.15 inches Hg (1021.0 mb)
Winds: from the NW (320 degrees) at 18 MPH (16 knots; 8.3 m/s)
gusting to 30 MPH (26 knots; 13.5 m/s)
Visibility: 6 or more miles (10+ km)
Ceiling: 4000 feet AGL
Clouds: few clouds at 2000 feet AGL
scattered clouds at 3000 feet AGL
broken clouds at 4000 feet AGL
Weather: -SHRA  (light rain showers)

METAR text: RJFU 110800Z 32019KT 9999 -SHRA FEW020 SCT030 BKN040 05/01 Q1021
Conditions at: RJFU (NAGASAKI(CIV/JMS, JP) observed 0800 UTC 11 December 2017
Temperature: 5.0°C (41°F)
Dewpoint: 1.0°C (34°F) [RH = 75%]
Pressure (altimeter): 30.15 inches Hg (1021.0 mb)
Winds: from the NW (320 degrees) at 22 MPH (19 knots; 9.9 m/s)
Visibility: 6 or more miles (10+ km)
Ceiling: 4000 feet AGL
Clouds: few clouds at 2000 feet AGL
scattered clouds at 3000 feet AGL
broken clouds at 4000 feet AGL
Weather: -SHRA  (light rain showers)

METAR text: RJFU 110735Z 32021G31KT 9999 -SHRA FEW020 SCT030 BKN040 07/M01 Q1021 RMK 1CU020 3CU030 7CU040 A3016
Conditions at: RJFU (NAGASAKI(CIV/JMS, JP) observed 0735 UTC 11 December 2017
Temperature: 7.0°C (45°F)
Dewpoint: -1.0°C (30°F) [RH = 57%]
Pressure (altimeter): 30.15 inches Hg (1021.0 mb)
Winds: from the NW (320 degrees) at 24 MPH (21 knots; 10.9 m/s)
gusting to 36 MPH (31 knots; 16.1 m/s)
Visibility: 6 or more miles (10+ km)
Ceiling: 4000 feet AGL
Clouds: few clouds at 2000 feet AGL
scattered clouds at 3000 feet AGL
broken clouds at 4000 feet AGL
Weather: -SHRA  (light rain showers)

METAR text: RJFU 110700Z 32017KT 9999 -RA FEW030 BKN045 07/M01 Q1021
Conditions at: RJFU (NAGASAKI(CIV/JMS, JP) observed 0700 UTC 11 December 2017
Temperature: 7.0°C (45°F)
Dewpoint: -1.0°C (30°F) [RH = 57%]
Pressure (altimeter): 30.15 inches Hg (1021.0 mb)
Winds: from the NW (320 degrees) at 20 MPH (17 knots; 8.8 m/s)
Visibility: 6 or more miles (10+ km)
Ceiling: 4500 feet AGL
Clouds: few clouds at 3000 feet AGL
broken clouds at 4500 feet AGL
Weather: -RA  (light rain)

METAR text: RJFU 110640Z 32016G26KT 280V340 9999 -RA FEW035 BKN050 07/M03 Q1020 RMK 2CU035 7SC050 A3015
Conditions at: RJFU (NAGASAKI(CIV/JMS, JP) observed 0640 UTC 11 December 2017
Temperature: 7.0°C (45°F)
Dewpoint: -3.0°C (27°F) [RH = 49%]
Pressure (altimeter): 30.12 inches Hg (1020.0 mb)
Winds: from the NW (320 degrees) at 18 MPH (16 knots; 8.3 m/s)
gusting to 30 MPH (26 knots; 13.5 m/s)
Visibility: 6 or more miles (10+ km)
Ceiling: 5000 feet AGL
Clouds: few clouds at 3500 feet AGL
broken clouds at 5000 feet AGL
Weather: -RA  (light rain)

METAR text: RJFU 110600Z 32018KT 9999 FEW035 BKN050 08/M04 Q1020
Conditions at: RJFU (NAGASAKI(CIV/JMS, JP) observed 0600 UTC 11 December 2017
Temperature: 8.0°C (46°F)
Dewpoint: -4.0°C (25°F) [RH = 42%]
Pressure (altimeter): 30.12 inches Hg (1020.0 mb)
Winds: from the NW (320 degrees) at 21 MPH (18 knots; 9.4 m/s)
Visibility: 6 or more miles (10+ km)
Ceiling: 5000 feet AGL
Clouds: few clouds at 3500 feet AGL
broken clouds at 5000 feet AGL
Weather: no significant weather observed at this time

METAR text: RJFU 110549Z 32019G29KT 9999 FEW035 BKN050 08/M04 Q1020 RMK 2CU035 7SC050 A3013
Conditions at: RJFU (NAGASAKI(CIV/JMS, JP) observed 0549 UTC 11 December 2017
Temperature: 8.0°C (46°F)
Dewpoint: -4.0°C (25°F) [RH = 42%]
Pressure (altimeter): 30.12 inches Hg (1020.0 mb)
Winds: from the NW (320 degrees) at 22 MPH (19 knots; 9.9 m/s)
gusting to 33 MPH (29 knots; 15.1 m/s)
Visibility: 6 or more miles (10+ km)
Ceiling: 5000 feet AGL
Clouds: few clouds at 3500 feet AGL
broken clouds at 5000 feet AGL
Weather: no significant weather observed at this time

METAR text: RJFU 110500Z 33021KT 9999 FEW035 BKN050 08/M04 Q1019
Conditions at: RJFU (NAGASAKI(CIV/JMS, JP) observed 0500 UTC 11 December 2017
Temperature: 8.0°C (46°F)
Dewpoint: -4.0°C (25°F) [RH = 42%]
Pressure (altimeter): 30.09 inches Hg (1019.0 mb)
Winds: from the NNW (330 degrees) at 24 MPH (21 knots; 10.9 m/s)
Visibility: 6 or more miles (10+ km)
Ceiling: 5000 feet AGL
Clouds: few clouds at 3500 feet AGL
broken clouds at 5000 feet AGL
Weather: no significant weather observed at this time

METAR text: RJFU 110402Z 32024G34KT 9999 FEW035 BKN050 08/M05 Q1020 RMK 1CU035 5SC050 A3012
Conditions at: RJFU (NAGASAKI(CIV/JMS, JP) observed 0402 UTC 11 December 2017
Temperature: 8.0°C (46°F)
Dewpoint: -5.0°C (23°F) [RH = 39%]
Pressure (altimeter): 30.12 inches Hg (1020.0 mb)
Winds: from the NW (320 degrees) at 28 MPH (24 knots; 12.5 m/s)
gusting to 39 MPH (34 knots; 17.7 m/s)
Visibility: 6 or more miles (10+ km)
Ceiling: 5000 feet AGL
Clouds: few clouds at 3500 feet AGL
broken clouds at 5000 feet AGL
Weather: no significant weather observed at this time

METAR text: RJFU 110400Z 32025KT 9999 FEW035 BKN050 08/M05 Q1020
Conditions at: RJFU (NAGASAKI(CIV/JMS, JP) observed 0400 UTC 11 December 2017
Temperature: 8.0°C (46°F)
Dewpoint: -5.0°C (23°F) [RH = 39%]
Pressure (altimeter): 30.12 inches Hg (1020.0 mb)
Winds: from the NW (320 degrees) at 29 MPH (25 knots; 13.0 m/s)
Visibility: 6 or more miles (10+ km)
Ceiling: 5000 feet AGL
Clouds: few clouds at 3500 feet AGL
broken clouds at 5000 feet AGL
Weather: no significant weather observed at this time